Terminal Aerodrome Forecast
Issued by NWS

Home | Current Version | Previous Version | Text Only | Print | Product List | Glossary On
Versions: 1 2 3 4 5 6 7 8 9 10 11 12 13 14 15 16 17 18 19 20 21 22 23 24
338
FTUS41 KBGM 131315 AAA
TAFRME
TAF AMD
KRME 131315Z 1313/1412 31015G25KT P6SM -SHSN BKN035
      TEMPO 1313/1315 3SM BLSN
     FM131800 30015G25KT P6SM OVC050
     FM140000 30012KT P6SM BKN050=

USA.gov is the U.S. government's official web portal to all federal, state and local government web resources and services.